Snow/Ice From: 23-10-2018 22:46 Until: 24-10-2018 08:00 warning for: Snow/Ice Level: Yellow info button
suomi:
Liikennesää: Ajokeli on huono tienpintojen jäätymisen vuoksi.

svenska:
Trafikvädret: Väglaget är dåligt p.g.a. tillfrysning av vägytor.

english:
Traffic weather warning: Bad road conditions are expected because of ice-covered roads. 


Thunder radar more information blitzortung!


Löydät sääaseman tiedot myös:

European Weather Network

Finland Weather Exchange

Weather Underground

AWEKAS



Weather Underground säähistoriasivu

Päivittäin yhteenveto Huhtikuu 8, 2017 Yksiköt:  Englantilaiset    Metriset   Molemmat
« Edellinen Päivä
Seuraava Päivä »
Päivittäin Viikoittain Kuukausittain Vuosittain Mukautettu
  Korkea: Matala: Keskiarvo:
Lämpötila: TemperatureF °F 25.7 °F 33.5 °F
Kastepiste: DewpointF °F 18.3 °F 23.4 °F
Kosteus: Humidity % 41 % 68 %
Tuulen nopeus: WindSpeedMPH mph 0.0 mph 0.2 mph
Tuulenpuuska: WindSpeedGustMPH mph - -
Tuuli:- - WNW
Ilmanpaine: PressureIn in 29.86 in -
Sade: 0.00 in    
Historical Graphs
 
 
Taulukkotiedot Huhtikuu 8, 2017
Aika Lämpötila Kastepiste Ilmanpaine Tuuli Tuulen nopeus Tuulenpuuska Kosteus Sademäärä (tunneittain)
TemperatureF °F DewpointF °F PressureIn in Calm     Humidity % HourlyPrecipIn in
00:00 27.9 °F 21.2 °F 29.86 in Calm   1.0 mph 76 % 0.00 in
00:15 27.9 °F 21.6 °F 29.86 in Calm     77 % 0.00 in
00:30 27.7 °F 21.4 °F 29.86 in Calm     77 % 0.00 in
00:45 27.1 °F 21.2 °F 29.86 in Calm     78 % 0.00 in
01:00 27.0 °F 21.2 °F 29.86 in Calm     79 % 0.00 in
01:15 26.8 °F 21.4 °F 29.86 in Calm     80 % 0.00 in
01:30 26.8 °F 21.9 °F 29.86 in Calm     82 % 0.00 in
01:45 26.4 °F 22.1 °F 29.86 in Calm     83 % 0.00 in
02:00 26.1 °F 22.1 °F 29.86 in Calm     85 % 0.00 in
02:15 25.9 °F 22.3 °F 29.86 in Calm     86 % 0.00 in
02:30 25.9 °F 22.3 °F 29.86 in Calm     86 % 0.00 in
02:45 25.9 °F 22.5 °F 29.86 in Calm     87 % 0.00 in
03:00 25.7 °F 22.3 °F 29.86 in Calm     87 % 0.00 in
03:15 25.7 °F 22.6 °F 29.86 in Calm     88 % 0.00 in
03:30 25.7 °F 22.6 °F 29.86 in Calm     88 % 0.00 in
03:45 26.1 °F 23.2 °F 29.86 in Calm     89 % 0.00 in
04:00 26.2 °F 23.5 °F 29.86 in Calm     89 % 0.00 in
04:15 26.6 °F 23.7 °F 29.87 in Calm     89 % 0.00 in
04:30 27.0 °F 24.4 °F 29.86 in Calm     90 % 0.00 in
04:45 27.3 °F 24.8 °F 29.86 in Calm     90 % 0.00 in
05:00 27.7 °F 25.0 °F 29.86 in Calm     90 % 0.00 in
05:15 27.9 °F 25.2 °F 29.86 in Calm     90 % 0.00 in
05:30 27.9 °F 25.2 °F 29.86 in Calm     90 % 0.00 in
05:45 28.0 °F 25.7 °F 29.86 in Calm     91 % 0.00 in
06:00 28.2 °F 25.9 °F 29.87 in Calm     91 % 0.00 in
06:15 28.4 °F 26.1 °F 29.87 in Calm     91 % 0.00 in
06:30 28.6 °F 26.2 °F 29.87 in Calm     91 % 0.00 in
06:45 28.8 °F 26.4 °F 29.88 in Calm     91 % 0.00 in
07:00 28.9 °F 26.6 °F 29.88 in Calm   1.0 mph 91 % 0.00 in
07:15 29.5 °F 27.0 °F 29.88 in Calm     90 % 0.00 in
07:30 29.7 °F 26.8 °F 29.89 in Calm     89 % 0.00 in
07:45 29.8 °F 26.8 °F 29.89 in Calm   2.0 mph 88 % 0.00 in
08:00 30.0 °F 27.0 °F 29.89 in Calm     88 % 0.00 in
08:15 30.0 °F 27.0 °F 29.90 in Calm   1.0 mph 88 % 0.00 in
08:30 30.0 °F 27.0 °F 29.90 in Calm     88 % 0.00 in
08:45 30.4 °F 27.3 °F 29.90 in Calm   1.0 mph 88 % 0.00 in
09:00 30.7 °F 27.5 °F 29.90 in Calm   1.0 mph 88 % 0.00 in
09:15 30.9 °F 27.3 °F 29.90 in Calm   3.0 mph 86 % 0.00 in
09:30 31.5 °F 27.9 °F 29.91 in Calm   3.0 mph 86 % 0.00 in
09:45 31.8 °F 27.7 °F 29.91 in Calm   2.0 mph 84 % 0.00 in
10:00 32.5 °F 27.5 °F 29.91 in Calm   1.0 mph 81 % 0.00 in
10:15 33.3 °F 27.1 °F 29.91 in Calm   2.0 mph 78 % 0.00 in
10:30 34.5 °F 27.9 °F 29.91 in Calm     76 % 0.00 in
10:45 35.6 °F 27.1 °F 29.91 in Calm   1.0 mph 71 % 0.00 in
11:00 36.7 °F 28.2 °F 29.91 in Calm   2.0 mph 71 % 0.00 in
11:15 37.0 °F 25.5 °F 29.91 in NNW 1.0 mph 3.0 mph 63 % 0.00 in
11:30 37.0 °F 23.9 °F 29.92 in Calm   3.0 mph 59 % 0.00 in
11:45 37.8 °F 25.9 °F 29.92 in Calm   2.0 mph 62 % 0.00 in
12:00 37.8 °F 25.5 °F 29.92 in Calm   3.0 mph 61 % 0.00 in
12:15 38.1 °F 23.7 °F 29.92 in NNE 1.0 mph 4.0 mph 56 % 0.00 in
12:30 38.3 °F 24.8 °F 29.92 in Calm   3.0 mph 58 % 0.00 in
12:45 39.0 °F 23.9 °F 29.92 in NW 1.0 mph 5.0 mph 54 % 0.00 in
13:00 39.2 °F 23.5 °F 29.93 in Calm   5.0 mph 53 % 0.00 in
13:15 39.2 °F 21.6 °F 29.93 in Calm   2.0 mph 49 % 0.00 in
13:30 40.1 °F 23.0 °F 29.93 in Calm   3.0 mph 50 % 0.00 in
13:45 40.6 °F 23.9 °F 29.92 in Calm   5.0 mph 51 % 0.00 in
14:00 40.5 °F 23.2 °F 29.92 in NW 2.0 mph 7.0 mph 50 % 0.00 in
14:15 40.1 °F 23.9 °F 29.92 in NW 1.0 mph 5.0 mph 52 % 0.00 in
14:30 40.6 °F 24.3 °F 29.92 in Calm   3.0 mph 52 % 0.00 in
14:45 40.3 °F 23.2 °F 29.92 in South 2.0 mph 7.0 mph 50 % 0.00 in
15:00 41.0 °F 19.6 °F 29.92 in NW 1.0 mph 5.0 mph 42 % 0.00 in
15:15 41.4 °F 19.4 °F 29.92 in NNW 1.0 mph 6.0 mph 41 % 0.00 in
15:30 41.7 °F 19.8 °F 29.92 in NW 1.0 mph 6.0 mph 41 % 0.00 in
15:45 41.2 °F 19.8 °F 29.92 in NW 1.0 mph 4.0 mph 42 % 0.00 in
16:00 41.4 °F 20.5 °F 29.91 in NW 1.0 mph 5.0 mph 43 % 0.00 in
16:15 41.0 °F 20.7 °F 29.91 in Calm   3.0 mph 44 % 0.00 in
16:30 40.6 °F 18.7 °F 29.91 in NW 1.0 mph 4.0 mph 41 % 0.00 in
16:45 40.5 °F 21.2 °F 29.91 in Calm   1.0 mph 46 % 0.00 in
17:00 40.5 °F 21.7 °F 29.91 in Calm     47 % 0.00 in
17:15 40.5 °F 20.3 °F 29.91 in Calm     44 % 0.00 in
17:30 40.5 °F 20.1 °F 29.91 in Calm     44 % 0.00 in
17:45 40.1 °F 18.3 °F 29.90 in Calm     41 % 0.00 in
18:00 39.9 °F 21.4 °F 29.90 in Calm     47 % 0.00 in
18:15 39.9 °F 19.2 °F 29.90 in Calm   1.0 mph 43 % 0.00 in
18:30 39.9 °F 20.3 °F 29.90 in Calm     45 % 0.00 in
18:45 40.3 °F 18.3 °F 29.90 in Calm     41 % 0.00 in
19:00 39.9 °F 18.7 °F 29.90 in Calm   2.0 mph 42 % 0.00 in
19:15 39.6 °F 22.8 °F 29.90 in Calm   1.0 mph 51 % 0.00 in
19:30 38.8 °F 20.8 °F 29.89 in Calm     48 % 0.00 in
19:45 38.7 °F 22.6 °F 29.90 in Calm     52 % 0.00 in
20:00 38.5 °F 22.8 °F 29.90 in Calm     53 % 0.00 in
20:15 37.9 °F 21.4 °F 29.90 in Calm     51 % 0.00 in
20:45 36.7 °F 22.8 °F 29.90 in Calm     57 % 0.00 in
21:00 36.3 °F 23.0 °F 29.90 in Calm     58 % 0.00 in
21:15 36.3 °F 23.7 °F 29.90 in SW 1.0 mph 4.0 mph 60 % 0.00 in
21:30 36.1 °F 24.3 °F 29.90 in Calm   1.0 mph 62 % 0.00 in
21:45 36.0 °F 25.0 °F 29.90 in Calm     64 % 0.00 in
22:00 35.6 °F 24.6 °F 29.89 in Calm     64 % 0.00 in
22:15 35.2 °F 25.3 °F 29.89 in Calm     67 % 0.00 in
22:30 34.9 °F 25.0 °F 29.89 in Calm     67 % 0.00 in
22:45 34.3 °F 25.7 °F 29.89 in Calm     70 % 0.00 in
23:00 34.0 °F 25.5 °F 29.88 in Calm     71 % 0.00 in
23:15 33.6 °F 25.5 °F 29.88 in Calm   2.0 mph 72 % 0.00 in
23:30 33.4 °F 25.7 °F 29.87 in Calm   2.0 mph 73 % 0.00 in
23:45 33.8 °F 26.8 °F 29.86 in Calm     75 % 0.00 in
Esan sääasema
Terveisin Weather Underground - 2.75 mb

Alkuperäinen skripti  Jim McMurry - jmcmurry@mwt.net Sovitettu myös templatelle  Wim van der Kuil - Leuven-Template.eu

Laitteet joita käytämme:

Sääasema
Davis VP2

Sääasemaohjelma
Cumulus

Sääaseman tietokone
Asus EeePC

Palveluntarjoaja
Suncomet

Davis VP2

Cumulus

Asus EeePC

Suncomet